sensor_id;sensor_type;location;lat;lon;timestamp;temperature;humidity
2477;DHT22;1249;51.270;6.756;2022-09-20T00:01:43;16.30;99.90
2477;DHT22;1249;51.270;6.756;2022-09-20T00:04:10;16.30;99.90
2477;DHT22;1249;51.270;6.756;2022-09-20T00:06:37;16.30;99.90
2477;DHT22;1249;51.270;6.756;2022-09-20T00:09:04;16.30;99.90
2477;DHT22;1249;51.270;6.756;2022-09-20T00:11:34;16.30;99.90
2477;DHT22;1249;51.270;6.756;2022-09-20T00:14:02;16.30;99.90
2477;DHT22;1249;51.270;6.756;2022-09-20T00:16:32;16.30;99.90
2477;DHT22;1249;51.270;6.756;2022-09-20T00:19:01;16.30;99.90
2477;DHT22;1249;51.270;6.756;2022-09-20T00:21:30;16.30;99.90
2477;DHT22;1249;51.270;6.756;2022-09-20T00:23:57;16.20;99.90
2477;DHT22;1249;51.270;6.756;2022-09-20T00:26:24;16.30;99.90
2477;DHT22;1249;51.270;6.756;2022-09-20T00:28:53;16.30;99.90
2477;DHT22;1249;51.270;6.756;2022-09-20T00:31:20;16.30;99.90
2477;DHT22;1249;51.270;6.756;2022-09-20T00:33:47;16.30;99.90
2477;DHT22;1249;51.270;6.756;2022-09-20T00:36:31;16.30;99.90
2477;DHT22;1249;51.270;6.756;2022-09-20T00:39:00;16.30;99.90
2477;DHT22;1249;51.270;6.756;2022-09-20T00:41:28;16.30;99.90
2477;DHT22;1249;51.270;6.756;2022-09-20T00:43:56;16.30;99.90
2477;DHT22;1249;51.270;6.756;2022-09-20T00:46:28;16.30;99.90
2477;DHT22;1249;51.270;6.756;2022-09-20T00:49:04;16.30;99.90
2477;DHT22;1249;51.270;6.756;2022-09-20T00:51:34;16.30;99.90
2477;DHT22;1249;51.270;6.756;2022-09-20T00:54:02;16.30;99.90
2477;DHT22;1249;51.270;6.756;2022-09-20T00:56:34;16.30;99.90
2477;DHT22;1249;51.270;6.756;2022-09-20T00:59:07;16.30;99.90
2477;DHT22;1249;51.270;6.756;2022-09-20T01:01:37;16.30;99.90
2477;DHT22;1249;51.270;6.756;2022-09-20T01:04:04;16.30;99.90
2477;DHT22;1249;51.270;6.756;2022-09-20T01:06:32;16.20;99.90
2477;DHT22;1249;51.270;6.756;2022-09-20T01:09:02;16.20;99.90
2477;DHT22;1249;51.270;6.756;2022-09-20T01:11:33;16.30;99.90
2477;DHT22;1249;51.270;6.756;2022-09-20T01:14:00;16.30;99.90
2477;DHT22;1249;51.270;6.756;2022-09-20T01:16:29;16.30;99.90
2477;DHT22;1249;51.270;6.756;2022-09-20T01:18:58;16.30;99.90
2477;DHT22;1249;51.270;6.756;2022-09-20T01:21:26;16.40;99.90
2477;DHT22;1249;51.270;6.756;2022-09-20T01:23:58;16.20;99.90
2477;DHT22;1249;51.270;6.756;2022-09-20T01:26:52;16.20;99.90
2477;DHT22;1249;51.270;6.756;2022-09-20T01:29:37;16.20;99.90
2477;DHT22;1249;51.270;6.756;2022-09-20T01:32:11;16.30;99.90
2477;DHT22;1249;51.270;6.756;2022-09-20T01:34:43;16.30;99.90
2477;DHT22;1249;51.270;6.756;2022-09-20T01:37:15;16.20;99.90
2477;DHT22;1249;51.270;6.756;2022-09-20T01:39:51;16.30;99.90
2477;DHT22;1249;51.270;6.756;2022-09-20T01:42:26;16.20;99.90
2477;DHT22;1249;51.270;6.756;2022-09-20T01:45:00;16.30;99.90
2477;DHT22;1249;51.270;6.756;2022-09-20T01:47:32;16.30;99.90
2477;DHT22;1249;51.270;6.756;2022-09-20T01:50:08;16.30;99.90
2477;DHT22;1249;51.270;6.756;2022-09-20T01:53:08;16.30;99.90
2477;DHT22;1249;51.270;6.756;2022-09-20T01:55:55;16.20;99.90
2477;DHT22;1249;51.270;6.756;2022-09-20T01:58:52;16.20;99.90
2477;DHT22;1249;51.270;6.756;2022-09-20T02:02:05;16.20;99.90
2477;DHT22;1249;51.270;6.756;2022-09-20T02:04:49;16.20;99.90
2477;DHT22;1249;51.270;6.756;2022-09-20T02:07:46;16.20;99.90
2477;DHT22;1249;51.270;6.756;2022-09-20T02:13:26;16.20;99.90
2477;DHT22;1249;51.270;6.756;2022-09-20T02:16:16;16.20;99.90
2477;DHT22;1249;51.270;6.756;2022-09-20T02:19:08;16.20;99.90
2477;DHT22;1249;51.270;6.756;2022-09-20T02:21:43;16.20;99.90
2477;DHT22;1249;51.270;6.756;2022-09-20T02:24:17;16.20;99.90
2477;DHT22;1249;51.270;6.756;2022-09-20T02:26:56;16.20;99.90
2477;DHT22;1249;51.270;6.756;2022-09-20T02:29:35;16.20;99.90
2477;DHT22;1249;51.270;6.756;2022-09-20T02:32:18;16.20;99.90
2477;DHT22;1249;51.270;6.756;2022-09-20T02:35:12;16.20;99.90
2477;DHT22;1249;51.270;6.756;2022-09-20T02:37:56;16.20;99.90
2477;DHT22;1249;51.270;6.756;2022-09-20T02:40:45;16.20;99.90
2477;DHT22;1249;51.270;6.756;2022-09-20T02:43:24;16.20;99.90
2477;DHT22;1249;51.270;6.756;2022-09-20T02:45:55;16.20;99.90
2477;DHT22;1249;51.270;6.756;2022-09-20T02:48:32;16.20;99.90
2477;DHT22;1249;51.270;6.756;2022-09-20T02:51:07;16.20;99.90
2477;DHT22;1249;51.270;6.756;2022-09-20T02:53:40;16.20;99.90
2477;DHT22;1249;51.270;6.756;2022-09-20T02:56:17;16.20;99.90
2477;DHT22;1249;51.270;6.756;2022-09-20T02:58:53;16.20;99.90
2477;DHT22;1249;51.270;6.756;2022-09-20T03:01:32;16.30;99.90
2477;DHT22;1249;51.270;6.756;2022-09-20T03:04:13;16.10;99.90
2477;DHT22;1249;51.270;6.756;2022-09-20T03:06:49;16.10;99.90
2477;DHT22;1249;51.270;6.756;2022-09-20T03:09:26;16.10;99.90
2477;DHT22;1249;51.270;6.756;2022-09-20T03:12:16;16.10;99.90
2477;DHT22;1249;51.270;6.756;2022-09-20T03:14:54;16.10;99.90
2477;DHT22;1249;51.270;6.756;2022-09-20T03:17:32;16.10;99.90
2477;DHT22;1249;51.270;6.756;2022-09-20T03:20:19;16.10;99.90
2477;DHT22;1249;51.270;6.756;2022-09-20T03:22:55;16.10;99.90
2477;DHT22;1249;51.270;6.756;2022-09-20T03:25:35;16.10;99.90
2477;DHT22;1249;51.270;6.756;2022-09-20T03:28:14;16.10;99.90
2477;DHT22;1249;51.270;6.756;2022-09-20T03:30:53;16.10;99.90
2477;DHT22;1249;51.270;6.756;2022-09-20T03:33:30;16.10;99.90
2477;DHT22;1249;51.270;6.756;2022-09-20T03:36:10;16.10;99.90
2477;DHT22;1249;51.270;6.756;2022-09-20T03:39:01;16.00;99.90
2477;DHT22;1249;51.270;6.756;2022-09-20T03:48:01;16.00;99.90
2477;DHT22;1249;51.270;6.756;2022-09-20T03:50:46;16.00;99.90
2477;DHT22;1249;51.270;6.756;2022-09-20T03:53:30;16.00;99.90
2477;DHT22;1249;51.270;6.756;2022-09-20T03:56:15;16.00;99.90
2477;DHT22;1249;51.270;6.756;2022-09-20T03:59:01;16.00;99.90
2477;DHT22;1249;51.270;6.756;2022-09-20T04:01:45;16.00;99.90
2477;DHT22;1249;51.270;6.756;2022-09-20T04:04:24;16.00;99.90
2477;DHT22;1249;51.270;6.756;2022-09-20T04:07:10;16.00;99.90
2477;DHT22;1249;51.270;6.756;2022-09-20T04:12:48;16.00;99.90
2477;DHT22;1249;51.270;6.756;2022-09-20T04:15:26;16.00;99.90
2477;DHT22;1249;51.270;6.756;2022-09-20T04:17:59;16.00;99.90
2477;DHT22;1249;51.270;6.756;2022-09-20T04:20:34;16.00;99.90
2477;DHT22;1249;51.270;6.756;2022-09-20T04:23:12;16.00;99.90
2477;DHT22;1249;51.270;6.756;2022-09-20T04:25:44;16.00;99.90
2477;DHT22;1249;51.270;6.756;2022-09-20T04:28:20;16.00;99.90
2477;DHT22;1249;51.270;6.756;2022-09-20T04:30:50;16.00;99.90
2477;DHT22;1249;51.270;6.756;2022-09-20T04:33:24;16.00;99.90
2477;DHT22;1249;51.270;6.756;2022-09-20T04:36:01;16.00;99.90
2477;DHT22;1249;51.270;6.756;2022-09-20T04:38:58;16.00;99.90
2477;DHT22;1249;51.270;6.756;2022-09-20T04:41:51;15.90;99.90
2477;DHT22;1249;51.270;6.756;2022-09-20T04:47:57;16.00;99.90
2477;DHT22;1249;51.270;6.756;2022-09-20T04:50:49;16.00;99.90
2477;DHT22;1249;51.270;6.756;2022-09-20T04:53:46;16.00;99.90
2477;DHT22;1249;51.270;6.756;2022-09-20T04:56:19;16.00;99.90
2477;DHT22;1249;51.270;6.756;2022-09-20T04:58:48;16.00;99.90
2477;DHT22;1249;51.270;6.756;2022-09-20T05:08:19;15.90;99.90
2477;DHT22;1249;51.270;6.756;2022-09-20T05:14:15;15.90;99.90
2477;DHT22;1249;51.270;6.756;2022-09-20T05:17:03;15.90;99.90
2477;DHT22;1249;51.270;6.756;2022-09-20T05:19:43;15.90;99.90
2477;DHT22;1249;51.270;6.756;2022-09-20T05:22:48;15.90;99.90
2477;DHT22;1249;51.270;6.756;2022-09-20T05:25:34;15.90;99.90
2477;DHT22;1249;51.270;6.756;2022-09-20T05:28:11;15.90;99.90
2477;DHT22;1249;51.270;6.756;2022-09-20T05:30:43;15.90;99.90
2477;DHT22;1249;51.270;6.756;2022-09-20T05:33:19;15.90;99.90
2477;DHT22;1249;51.270;6.756;2022-09-20T05:35:58;15.90;99.90
2477;DHT22;1249;51.270;6.756;2022-09-20T05:38:38;15.90;99.90
2477;DHT22;1249;51.270;6.756;2022-09-20T05:41:11;15.90;99.90
2477;DHT22;1249;51.270;6.756;2022-09-20T05:43:49;15.90;99.90
2477;DHT22;1249;51.270;6.756;2022-09-20T05:46:25;16.00;99.90
2477;DHT22;1249;51.270;6.756;2022-09-20T05:49:06;15.90;99.90
2477;DHT22;1249;51.270;6.756;2022-09-20T05:51:46;15.90;99.90
2477;DHT22;1249;51.270;6.756;2022-09-20T05:54:46;15.90;99.90
2477;DHT22;1249;51.270;6.756;2022-09-20T05:57:27;16.10;99.90
2477;DHT22;1249;51.270;6.756;2022-09-20T06:00:00;16.20;99.90
2477;DHT22;1249;51.270;6.756;2022-09-20T06:02:37;16.30;99.90
2477;DHT22;1249;51.270;6.756;2022-09-20T06:05:12;16.40;99.90
2477;DHT22;1249;51.270;6.756;2022-09-20T06:07:52;16.50;99.90
2477;DHT22;1249;51.270;6.756;2022-09-20T06:10:40;16.60;99.90
2477;DHT22;1249;51.270;6.756;2022-09-20T06:13:37;16.70;99.90
2477;DHT22;1249;51.270;6.756;2022-09-20T06:16:11;16.70;99.90
2477;DHT22;1249;51.270;6.756;2022-09-20T06:18:42;16.80;99.90
2477;DHT22;1249;51.270;6.756;2022-09-20T06:21:28;16.90;99.90
2477;DHT22;1249;51.270;6.756;2022-09-20T06:23:59;16.90;99.90
2477;DHT22;1249;51.270;6.756;2022-09-20T06:26:27;17.00;99.90
2477;DHT22;1249;51.270;6.756;2022-09-20T06:28:59;17.10;99.90
2477;DHT22;1249;51.270;6.756;2022-09-20T06:31:27;17.10;99.90
2477;DHT22;1249;51.270;6.756;2022-09-20T06:33:56;17.20;99.90
2477;DHT22;1249;51.270;6.756;2022-09-20T06:36:29;17.20;99.90
2477;DHT22;1249;51.270;6.756;2022-09-20T06:39:21;17.30;99.90
2477;DHT22;1249;51.270;6.756;2022-09-20T06:42:08;17.40;99.90
2477;DHT22;1249;51.270;6.756;2022-09-20T06:44:35;17.40;99.90
2477;DHT22;1249;51.270;6.756;2022-09-20T06:47:05;17.40;99.90
2477;DHT22;1249;51.270;6.756;2022-09-20T06:49:33;17.50;99.90
2477;DHT22;1249;51.270;6.756;2022-09-20T06:52:03;17.50;99.90
2477;DHT22;1249;51.270;6.756;2022-09-20T06:54:30;17.50;99.90
2477;DHT22;1249;51.270;6.756;2022-09-20T06:56:59;17.60;99.90
2477;DHT22;1249;51.270;6.756;2022-09-20T06:59:27;17.60;99.90
2477;DHT22;1249;51.270;6.756;2022-09-20T07:01:54;17.70;99.90
2477;DHT22;1249;51.270;6.756;2022-09-20T07:04:21;17.80;99.90
2477;DHT22;1249;51.270;6.756;2022-09-20T07:06:51;17.90;99.90
2477;DHT22;1249;51.270;6.756;2022-09-20T07:09:19;18.10;99.90
2477;DHT22;1249;51.270;6.756;2022-09-20T07:11:46;18.20;99.90
2477;DHT22;1249;51.270;6.756;2022-09-20T07:14:13;18.20;99.90
2477;DHT22;1249;51.270;6.756;2022-09-20T07:16:40;18.10;99.90
2477;DHT22;1249;51.270;6.756;2022-09-20T07:19:06;18.20;99.90
2477;DHT22;1249;51.270;6.756;2022-09-20T07:21:33;18.30;99.90
2477;DHT22;1249;51.270;6.756;2022-09-20T07:24:00;18.30;99.90
2477;DHT22;1249;51.270;6.756;2022-09-20T07:26:29;18.30;99.90
2477;DHT22;1249;51.270;6.756;2022-09-20T07:28:57;18.40;99.90
2477;DHT22;1249;51.270;6.756;2022-09-20T07:31:26;18.40;99.90
2477;DHT22;1249;51.270;6.756;2022-09-20T07:33:53;18.50;99.90
2477;DHT22;1249;51.270;6.756;2022-09-20T07:36:20;18.50;99.90
2477;DHT22;1249;51.270;6.756;2022-09-20T07:38:47;18.60;99.90
2477;DHT22;1249;51.270;6.756;2022-09-20T07:41:15;18.80;99.90
2477;DHT22;1249;51.270;6.756;2022-09-20T07:43:45;18.90;99.90
2477;DHT22;1249;51.270;6.756;2022-09-20T07:46:12;19.00;99.90
2477;DHT22;1249;51.270;6.756;2022-09-20T07:48:39;19.00;99.90
2477;DHT22;1249;51.270;6.756;2022-09-20T07:51:08;19.10;99.90
2477;DHT22;1249;51.270;6.756;2022-09-20T07:53:35;19.20;99.90
2477;DHT22;1249;51.270;6.756;2022-09-20T07:56:04;19.30;99.90
2477;DHT22;1249;51.270;6.756;2022-09-20T07:58:33;19.30;99.90
2477;DHT22;1249;51.270;6.756;2022-09-20T08:01:03;19.50;99.90
2477;DHT22;1249;51.270;6.756;2022-09-20T08:03:31;19.40;99.90
2477;DHT22;1249;51.270;6.756;2022-09-20T08:05:59;19.50;99.90
2477;DHT22;1249;51.270;6.756;2022-09-20T08:08:27;19.50;99.90
2477;DHT22;1249;51.270;6.756;2022-09-20T08:11:01;19.60;99.90
2477;DHT22;1249;51.270;6.756;2022-09-20T08:13:29;19.60;99.90
2477;DHT22;1249;51.270;6.756;2022-09-20T08:16:01;19.60;99.90
2477;DHT22;1249;51.270;6.756;2022-09-20T08:18:29;19.70;99.90
2477;DHT22;1249;51.270;6.756;2022-09-20T08:20:56;19.70;99.90
2477;DHT22;1249;51.270;6.756;2022-09-20T08:23:22;19.80;99.90
2477;DHT22;1249;51.270;6.756;2022-09-20T08:25:49;19.80;99.90
2477;DHT22;1249;51.270;6.756;2022-09-20T08:28:16;19.80;99.90
2477;DHT22;1249;51.270;6.756;2022-09-20T08:30:43;19.90;99.90
2477;DHT22;1249;51.270;6.756;2022-09-20T08:33:11;19.80;99.90
2477;DHT22;1249;51.270;6.756;2022-09-20T08:35:37;19.80;99.90
2477;DHT22;1249;51.270;6.756;2022-09-20T08:38:04;19.70;99.90
2477;DHT22;1249;51.270;6.756;2022-09-20T08:40:32;19.70;99.90
2477;DHT22;1249;51.270;6.756;2022-09-20T08:43:00;19.80;99.90
2477;DHT22;1249;51.270;6.756;2022-09-20T08:45:27;19.90;99.90
2477;DHT22;1249;51.270;6.756;2022-09-20T08:47:57;19.90;99.90
2477;DHT22;1249;51.270;6.756;2022-09-20T08:50:27;20.00;99.90
2477;DHT22;1249;51.270;6.756;2022-09-20T08:52:56;20.30;99.90
2477;DHT22;1249;51.270;6.756;2022-09-20T08:55:25;20.10;99.90
2477;DHT22;1249;51.270;6.756;2022-09-20T08:57:56;20.20;99.90
2477;DHT22;1249;51.270;6.756;2022-09-20T09:00:25;20.30;99.90
2477;DHT22;1249;51.270;6.756;2022-09-20T09:02:55;20.40;99.90
2477;DHT22;1249;51.270;6.756;2022-09-20T09:05:31;20.60;99.20
2477;DHT22;1249;51.270;6.756;2022-09-20T09:07:59;20.80;99.00
2477;DHT22;1249;51.270;6.756;2022-09-20T09:10:32;20.80;98.40
2477;DHT22;1249;51.270;6.756;2022-09-20T09:13:01;20.90;98.00
2477;DHT22;1249;51.270;6.756;2022-09-20T09:15:31;21.00;97.40
2477;DHT22;1249;51.270;6.756;2022-09-20T09:17:58;21.10;97.60
2477;DHT22;1249;51.270;6.756;2022-09-20T09:20:26;21.30;97.20
2477;DHT22;1249;51.270;6.756;2022-09-20T09:23:02;21.30;96.50
2477;DHT22;1249;51.270;6.756;2022-09-20T09:25:30;21.30;93.70
2477;DHT22;1249;51.270;6.756;2022-09-20T09:28:01;21.30;92.10
2477;DHT22;1249;51.270;6.756;2022-09-20T09:30:32;21.60;90.50
2477;DHT22;1249;51.270;6.756;2022-09-20T09:33:29;21.60;88.40
2477;DHT22;1249;51.270;6.756;2022-09-20T09:35:58;21.40;86.00
2477;DHT22;1249;51.270;6.756;2022-09-20T09:38:28;21.20;85.00
2477;DHT22;1249;51.270;6.756;2022-09-20T09:40:57;21.10;84.00
2477;DHT22;1249;51.270;6.756;2022-09-20T09:43:25;21.30;82.60
2477;DHT22;1249;51.270;6.756;2022-09-20T09:45:55;21.40;82.70
2477;DHT22;1249;51.270;6.756;2022-09-20T09:48:25;21.60;81.10
2477;DHT22;1249;51.270;6.756;2022-09-20T09:51:07;21.80;79.60
2477;DHT22;1249;51.270;6.756;2022-09-20T09:53:36;22.10;79.30
2477;DHT22;1249;51.270;6.756;2022-09-20T09:56:15;22.10;79.50
2477;DHT22;1249;51.270;6.756;2022-09-20T09:59:02;22.00;78.80
2477;DHT22;1249;51.270;6.756;2022-09-20T10:01:40;21.90;79.00
2477;DHT22;1249;51.270;6.756;2022-09-20T10:04:14;21.80;79.40
2477;DHT22;1249;51.270;6.756;2022-09-20T10:06:47;21.60;80.30
2477;DHT22;1249;51.270;6.756;2022-09-20T10:09:28;21.50;81.50
2477;DHT22;1249;51.270;6.756;2022-09-20T10:12:12;21.40;82.20
2477;DHT22;1249;51.270;6.756;2022-09-20T10:14:53;21.10;82.60
2477;DHT22;1249;51.270;6.756;2022-09-20T10:17:37;21.00;82.70
2477;DHT22;1249;51.270;6.756;2022-09-20T10:20:26;20.90;82.50
2477;DHT22;1249;51.270;6.756;2022-09-20T10:23:06;20.90;83.00
2477;DHT22;1249;51.270;6.756;2022-09-20T10:25:43;20.80;84.10
2477;DHT22;1249;51.270;6.756;2022-09-20T10:28:29;20.70;86.30
2477;DHT22;1249;51.270;6.756;2022-09-20T10:31:03;20.60;86.30
2477;DHT22;1249;51.270;6.756;2022-09-20T10:33:36;20.50;85.60
2477;DHT22;1249;51.270;6.756;2022-09-20T10:36:14;20.30;82.50
2477;DHT22;1249;51.270;6.756;2022-09-20T10:38:52;20.40;85.60
2477;DHT22;1249;51.270;6.756;2022-09-20T10:41:39;20.40;85.90
2477;DHT22;1249;51.270;6.756;2022-09-20T10:44:46;20.40;85.70
2477;DHT22;1249;51.270;6.756;2022-09-20T10:47:18;20.40;86.90
2477;DHT22;1249;51.270;6.756;2022-09-20T10:49:53;20.40;87.30
2477;DHT22;1249;51.270;6.756;2022-09-20T10:52:36;20.50;86.30
2477;DHT22;1249;51.270;6.756;2022-09-20T10:55:18;20.50;85.80
2477;DHT22;1249;51.270;6.756;2022-09-20T10:58:26;20.40;85.50
2477;DHT22;1249;51.270;6.756;2022-09-20T11:01:00;20.50;86.80
2477;DHT22;1249;51.270;6.756;2022-09-20T11:06:36;20.50;86.60
2477;DHT22;1249;51.270;6.756;2022-09-20T11:09:08;20.50;86.30
2477;DHT22;1249;51.270;6.756;2022-09-20T11:11:40;20.60;86.10
2477;DHT22;1249;51.270;6.756;2022-09-20T11:14:13;20.60;85.80
2477;DHT22;1249;51.270;6.756;2022-09-20T11:16:44;20.60;85.30
2477;DHT22;1249;51.270;6.756;2022-09-20T11:19:18;20.80;85.20
2477;DHT22;1249;51.270;6.756;2022-09-20T11:21:51;21.00;85.20
2477;DHT22;1249;51.270;6.756;2022-09-20T11:24:26;21.10;85.70
2477;DHT22;1249;51.270;6.756;2022-09-20T11:26:57;21.30;85.50
2477;DHT22;1249;51.270;6.756;2022-09-20T11:29:30;22.00;87.10
2477;DHT22;1249;51.270;6.756;2022-09-20T11:32:04;22.40;83.60
2477;DHT22;1249;51.270;6.756;2022-09-20T11:34:36;22.50;83.50
2477;DHT22;1249;51.270;6.756;2022-09-20T11:37:05;22.60;83.50
2477;DHT22;1249;51.270;6.756;2022-09-20T11:39:36;23.00;83.50
2477;DHT22;1249;51.270;6.756;2022-09-20T11:42:06;23.50;81.90
2477;DHT22;1249;51.270;6.756;2022-09-20T11:44:40;24.00;79.60
2477;DHT22;1249;51.270;6.756;2022-09-20T11:47:13;24.50;77.20
2477;DHT22;1249;51.270;6.756;2022-09-20T11:49:54;24.80;76.30
2477;DHT22;1249;51.270;6.756;2022-09-20T11:52:56;24.90;74.80
2477;DHT22;1249;51.270;6.756;2022-09-20T11:55:37;25.00;75.50
2477;DHT22;1249;51.270;6.756;2022-09-20T11:58:15;25.10;74.80
2477;DHT22;1249;51.270;6.756;2022-09-20T12:01:33;24.90;74.40
2477;DHT22;1249;51.270;6.756;2022-09-20T12:04:09;24.70;75.70
2477;DHT22;1249;51.270;6.756;2022-09-20T12:33:58;22.40;83.70
2477;DHT22;1249;51.270;6.756;2022-09-20T12:43:37;22.80;84.00
2477;DHT22;1249;51.270;6.756;2022-09-20T12:46:33;22.90;83.30
2477;DHT22;1249;51.270;6.756;2022-09-20T12:56:12;23.30;82.70
2477;DHT22;1249;51.270;6.756;2022-09-20T13:05:41;23.40;82.60
2477;DHT22;1249;51.270;6.756;2022-09-20T13:11:54;23.30;82.70
2477;DHT22;1249;51.270;6.756;2022-09-20T13:14:23;23.50;83.00
2477;DHT22;1249;51.270;6.756;2022-09-20T13:16:53;23.70;81.20
2477;DHT22;1249;51.270;6.756;2022-09-20T13:19:23;24.00;78.30
2477;DHT22;1249;51.270;6.756;2022-09-20T13:21:56;24.30;75.70
2477;DHT22;1249;51.270;6.756;2022-09-20T13:24:25;24.70;74.10
2477;DHT22;1249;51.270;6.756;2022-09-20T13:27:00;24.80;71.40
2477;DHT22;1249;51.270;6.756;2022-09-20T13:29:31;24.80;71.10
2477;DHT22;1249;51.270;6.756;2022-09-20T13:32:14;24.90;70.10
2477;DHT22;1249;51.270;6.756;2022-09-20T13:34:41;25.00;69.90
2477;DHT22;1249;51.270;6.756;2022-09-20T13:37:15;25.30;68.80
2477;DHT22;1249;51.270;6.756;2022-09-20T13:39:45;25.30;67.60
2477;DHT22;1249;51.270;6.756;2022-09-20T13:42:15;25.00;67.60
2477;DHT22;1249;51.270;6.756;2022-09-20T13:44:44;24.80;68.80
2477;DHT22;1249;51.270;6.756;2022-09-20T13:47:23;24.60;70.10
2477;DHT22;1249;51.270;6.756;2022-09-20T13:49:50;24.40;69.60
2477;DHT22;1249;51.270;6.756;2022-09-20T13:52:23;24.10;70.30
2477;DHT22;1249;51.270;6.756;2022-09-20T13:54:51;24.00;69.40
2477;DHT22;1249;51.270;6.756;2022-09-20T13:57:23;23.80;71.10
2477;DHT22;1249;51.270;6.756;2022-09-20T13:59:52;23.70;71.40
2477;DHT22;1249;51.270;6.756;2022-09-20T14:02:22;23.80;70.40
2477;DHT22;1249;51.270;6.756;2022-09-20T14:04:51;23.80;70.70
2477;DHT22;1249;51.270;6.756;2022-09-20T14:07:19;23.70;69.50
2477;DHT22;1249;51.270;6.756;2022-09-20T14:09:50;23.60;70.50
2477;DHT22;1249;51.270;6.756;2022-09-20T14:12:18;23.30;68.80
2477;DHT22;1249;51.270;6.756;2022-09-20T14:14:48;23.10;70.20
2477;DHT22;1249;51.270;6.756;2022-09-20T14:17:17;23.00;70.80
2477;DHT22;1249;51.270;6.756;2022-09-20T14:19:47;23.00;72.90
2477;DHT22;1249;51.270;6.756;2022-09-20T14:22:17;23.10;74.20
2477;DHT22;1249;51.270;6.756;2022-09-20T14:24:56;23.40;75.70
2477;DHT22;1249;51.270;6.756;2022-09-20T14:27:24;23.70;75.20
2477;DHT22;1249;51.270;6.756;2022-09-20T14:29:53;24.10;74.40
2477;DHT22;1249;51.270;6.756;2022-09-20T14:32:38;24.50;73.70
2477;DHT22;1249;51.270;6.756;2022-09-20T14:35:14;24.90;72.80
2477;DHT22;1249;51.270;6.756;2022-09-20T14:37:43;25.20;71.90
2477;DHT22;1249;51.270;6.756;2022-09-20T14:40:29;25.50;71.10
2477;DHT22;1249;51.270;6.756;2022-09-20T14:42:58;25.70;70.20
2477;DHT22;1249;51.270;6.756;2022-09-20T14:45:29;26.00;69.80
2477;DHT22;1249;51.270;6.756;2022-09-20T14:48:01;26.20;69.40
2477;DHT22;1249;51.270;6.756;2022-09-20T14:50:34;26.30;68.70
2477;DHT22;1249;51.270;6.756;2022-09-20T14:53:22;26.50;68.50
2477;DHT22;1249;51.270;6.756;2022-09-20T14:58:59;26.80;67.60
2477;DHT22;1249;51.270;6.756;2022-09-20T15:01:27;26.90;67.40
2477;DHT22;1249;51.270;6.756;2022-09-20T15:03:55;27.00;67.10
2477;DHT22;1249;51.270;6.756;2022-09-20T15:06:23;27.10;66.90
2477;DHT22;1249;51.270;6.756;2022-09-20T15:08:50;27.20;66.60
2477;DHT22;1249;51.270;6.756;2022-09-20T15:11:17;27.30;66.30
2477;DHT22;1249;51.270;6.756;2022-09-20T15:13:44;27.40;66.10
2477;DHT22;1249;51.270;6.756;2022-09-20T15:16:11;27.50;66.10
2477;DHT22;1249;51.270;6.756;2022-09-20T15:18:41;27.50;65.50
2477;DHT22;1249;51.270;6.756;2022-09-20T15:21:08;27.60;65.30
2477;DHT22;1249;51.270;6.756;2022-09-20T15:23:36;27.60;65.00
2477;DHT22;1249;51.270;6.756;2022-09-20T15:26:04;27.60;64.90
2477;DHT22;1249;51.270;6.756;2022-09-20T15:28:32;27.60;64.80
2477;DHT22;1249;51.270;6.756;2022-09-20T15:30:59;27.60;65.20
2477;DHT22;1249;51.270;6.756;2022-09-20T15:33:29;27.40;65.10
2477;DHT22;1249;51.270;6.756;2022-09-20T15:35:58;27.10;66.00
2477;DHT22;1249;51.270;6.756;2022-09-20T15:38:26;26.80;66.90
2477;DHT22;1249;51.270;6.756;2022-09-20T15:40:53;26.40;67.80
2477;DHT22;1249;51.270;6.756;2022-09-20T15:43:21;26.10;68.90
2477;DHT22;1249;51.270;6.756;2022-09-20T15:45:52;25.80;69.80
2477;DHT22;1249;51.270;6.756;2022-09-20T15:48:22;25.60;70.50
2477;DHT22;1249;51.270;6.756;2022-09-20T15:51:00;25.40;71.90
2477;DHT22;1249;51.270;6.756;2022-09-20T15:53:28;25.20;71.60
2477;DHT22;1249;51.270;6.756;2022-09-20T15:55:57;25.00;72.00
2477;DHT22;1249;51.270;6.756;2022-09-20T15:58:26;24.90;72.50
2477;DHT22;1249;51.270;6.756;2022-09-20T16:03:27;24.70;72.90
2477;DHT22;1249;51.270;6.756;2022-09-20T16:05:57;24.80;73.00
2477;DHT22;1249;51.270;6.756;2022-09-20T16:08:30;24.80;72.70
2477;DHT22;1249;51.270;6.756;2022-09-20T16:10:57;24.80;73.10
2477;DHT22;1249;51.270;6.756;2022-09-20T16:13:24;24.70;73.20
2477;DHT22;1249;51.270;6.756;2022-09-20T16:15:54;24.70;73.70
2477;DHT22;1249;51.270;6.756;2022-09-20T16:18:22;24.60;72.90
2477;DHT22;1249;51.270;6.756;2022-09-20T16:21:07;24.50;72.70
2477;DHT22;1249;51.270;6.756;2022-09-20T16:23:37;24.40;73.30
2477;DHT22;1249;51.270;6.756;2022-09-20T16:26:05;24.30;73.00
2477;DHT22;1249;51.270;6.756;2022-09-20T16:28:32;24.20;73.50
2477;DHT22;1249;51.270;6.756;2022-09-20T16:31:00;24.00;71.30
2477;DHT22;1249;51.270;6.756;2022-09-20T16:33:27;23.90;70.80
2477;DHT22;1249;51.270;6.756;2022-09-20T16:35:54;23.70;70.00
2477;DHT22;1249;51.270;6.756;2022-09-20T16:38:21;23.60;69.00
2477;DHT22;1249;51.270;6.756;2022-09-20T16:40:49;23.50;69.10
2477;DHT22;1249;51.270;6.756;2022-09-20T16:43:18;23.30;69.00
2477;DHT22;1249;51.270;6.756;2022-09-20T16:45:48;23.20;69.10
2477;DHT22;1249;51.270;6.756;2022-09-20T16:48:15;23.10;69.30
2477;DHT22;1249;51.270;6.756;2022-09-20T16:50:42;23.00;69.70
2477;DHT22;1249;51.270;6.756;2022-09-20T16:53:11;22.80;70.30
2477;DHT22;1249;51.270;6.756;2022-09-20T16:55:42;22.70;70.20
2477;DHT22;1249;51.270;6.756;2022-09-20T16:58:11;22.60;70.30
2477;DHT22;1249;51.270;6.756;2022-09-20T17:00:37;22.50;70.40
2477;DHT22;1249;51.270;6.756;2022-09-20T17:03:04;22.70;70.20
2477;DHT22;1249;51.270;6.756;2022-09-20T17:05:32;22.40;70.00
2477;DHT22;1249;51.270;6.756;2022-09-20T17:07:59;22.40;71.30
2477;DHT22;1249;51.270;6.756;2022-09-20T17:10:26;22.30;73.10
2477;DHT22;1249;51.270;6.756;2022-09-20T17:12:54;22.20;73.70
2477;DHT22;1249;51.270;6.756;2022-09-20T17:15:23;22.20;74.10
2477;DHT22;1249;51.270;6.756;2022-09-20T17:17:51;22.10;75.80
2477;DHT22;1249;51.270;6.756;2022-09-20T17:20:17;22.10;75.50
2477;DHT22;1249;51.270;6.756;2022-09-20T17:22:44;22.00;76.40
2477;DHT22;1249;51.270;6.756;2022-09-20T17:25:11;22.00;76.30
2477;DHT22;1249;51.270;6.756;2022-09-20T17:27:38;21.90;76.50
2477;DHT22;1249;51.270;6.756;2022-09-20T17:30:06;21.80;77.30
2477;DHT22;1249;51.270;6.756;2022-09-20T17:32:35;21.80;76.90
2477;DHT22;1249;51.270;6.756;2022-09-20T17:35:03;21.80;77.20
2477;DHT22;1249;51.270;6.756;2022-09-20T17:37:30;21.80;78.10
2477;DHT22;1249;51.270;6.756;2022-09-20T17:39:56;21.70;80.00
2477;DHT22;1249;51.270;6.756;2022-09-20T17:42:26;21.70;80.00
2477;DHT22;1249;51.270;6.756;2022-09-20T17:44:54;21.60;81.30
2477;DHT22;1249;51.270;6.756;2022-09-20T17:47:20;21.60;81.20
2477;DHT22;1249;51.270;6.756;2022-09-20T17:49:50;21.50;81.70
2477;DHT22;1249;51.270;6.756;2022-09-20T17:52:19;21.50;82.60
2477;DHT22;1249;51.270;6.756;2022-09-20T17:54:45;21.40;82.50
2477;DHT22;1249;51.270;6.756;2022-09-20T17:57:12;21.40;83.50
2477;DHT22;1249;51.270;6.756;2022-09-20T17:59:39;21.40;83.80
2477;DHT22;1249;51.270;6.756;2022-09-20T18:02:07;21.30;83.90
2477;DHT22;1249;51.270;6.756;2022-09-20T18:04:34;21.20;84.30
2477;DHT22;1249;51.270;6.756;2022-09-20T18:07:03;21.20;84.90
2477;DHT22;1249;51.270;6.756;2022-09-20T18:09:29;21.10;85.00
2477;DHT22;1249;51.270;6.756;2022-09-20T18:11:57;21.10;85.60